createdAt,value
2019-02-04T00:01:27.214Z,46.62
2019-02-04T00:03:53.476Z,46.94
2019-02-04T00:06:19.535Z,46.82
2019-02-04T00:08:45.650Z,46.60
2019-02-04T00:11:11.706Z,46.74
2019-02-04T00:13:37.680Z,46.77
2019-02-04T00:16:03.683Z,46.93
2019-02-04T00:18:29.679Z,47.12
2019-02-04T00:20:55.662Z,46.86
2019-02-04T00:23:21.663Z,46.95
2019-02-04T00:25:47.647Z,47.05
2019-02-04T00:28:13.690Z,46.68
2019-02-04T00:30:39.668Z,46.77
2019-02-04T00:33:05.670Z,46.90
2019-02-04T00:35:31.687Z,46.82
2019-02-04T00:37:57.761Z,47.09
2019-02-04T00:40:23.760Z,46.78
2019-02-04T00:42:49.735Z,46.79
2019-02-04T00:45:15.737Z,46.94
2019-02-04T00:47:41.720Z,46.33
2019-02-04T00:50:07.732Z,46.48
2019-02-04T00:52:33.710Z,46.75
2019-02-04T00:54:59.722Z,46.34
2019-02-04T00:57:25.702Z,46.73
2019-02-04T00:59:51.731Z,46.35
2019-02-04T01:02:18.102Z,46.53
2019-02-04T01:04:44.083Z,46.66
2019-02-04T01:07:10.091Z,46.61
2019-02-04T01:09:36.079Z,46.60
2019-02-04T01:12:02.134Z,47.00
2019-02-04T01:14:28.230Z,46.83
2019-02-04T01:17:03.313Z,47.06
2019-02-04T01:19:21.941Z,47.10
2019-02-04T01:21:47.952Z,46.91
2019-02-04T01:24:13.972Z,46.84
2019-02-04T01:26:39.960Z,46.85
2019-02-04T01:29:06.055Z,46.75
2019-02-04T01:31:32.155Z,46.59
2019-02-04T01:33:58.191Z,46.86
2019-02-04T01:36:24.196Z,46.72
2019-02-04T01:38:50.554Z,47.19
2019-02-04T01:41:16.612Z,46.88
2019-02-04T01:43:42.613Z,46.90
2019-02-04T01:46:08.583Z,46.86
2019-02-04T01:48:34.607Z,46.55
2019-02-04T01:51:00.700Z,46.86
2019-02-04T01:53:26.759Z,46.80
2019-02-04T01:55:52.752Z,46.54
2019-02-04T01:58:19.104Z,46.65
2019-02-04T02:00:45.099Z,46.95
2019-02-04T02:03:11.180Z,47.31
2019-02-04T02:05:37.149Z,47.11
2019-02-04T02:08:03.135Z,46.84
2019-02-04T02:10:29.153Z,47.08
2019-02-04T02:12:55.128Z,47.10
2019-02-04T02:15:21.141Z,47.01
2019-02-04T02:17:47.597Z,46.82
2019-02-04T02:20:13.599Z,46.93
2019-02-04T02:22:40.642Z,46.70
2019-02-04T02:25:06.647Z,46.89
2019-02-04T02:27:32.654Z,46.15
2019-02-04T02:29:59.751Z,46.69
2019-02-04T02:32:25.754Z,46.70
2019-02-04T02:34:52.242Z,46.39
2019-02-04T02:37:18.286Z,45.96
2019-02-04T02:39:44.253Z,45.81
2019-02-04T02:42:10.245Z,45.63
2019-02-04T02:44:36.397Z,45.79
2019-02-04T02:47:02.396Z,45.74
2019-02-04T02:49:28.395Z,45.76
2019-02-04T02:51:54.386Z,45.34
2019-02-04T02:54:20.362Z,45.33
2019-02-04T02:56:46.725Z,45.45
2019-02-04T02:59:12.714Z,45.26
2019-02-04T03:01:38.683Z,45.38
2019-02-04T03:04:04.660Z,45.29
2019-02-04T03:06:30.674Z,45.28
2019-02-04T03:08:56.636Z,45.40
2019-02-04T03:11:22.639Z,45.32
2019-02-04T03:13:48.639Z,45.36
2019-02-04T03:16:14.908Z,45.33
2019-02-04T03:18:40.911Z,45.32
2019-02-04T03:21:06.887Z,45.18
2019-02-04T03:23:32.886Z,45.21
2019-02-04T03:25:58.860Z,45.33
2019-02-04T03:28:24.844Z,45.25
2019-02-04T03:30:50.891Z,45.19
2019-02-04T03:33:16.969Z,45.13
2019-02-04T03:35:43.271Z,45.12
2019-02-04T03:38:09.260Z,45.12
2019-02-04T03:40:35.237Z,45.15
2019-02-04T03:43:01.288Z,45.16
2019-02-04T03:45:27.273Z,45.06
2019-02-04T03:48:04.272Z,45.11
2019-02-04T03:50:20.997Z,45.07
2019-02-04T03:52:47.476Z,45.03
2019-02-04T03:55:13.457Z,45.05
2019-02-04T03:57:39.439Z,45.05
2019-02-04T04:00:05.409Z,45.02
2019-02-04T04:02:31.429Z,45.12
2019-02-04T04:04:57.405Z,45.11
2019-02-04T04:07:23.396Z,45.11
2019-02-04T04:09:49.477Z,45.09
2019-02-04T04:12:15.957Z,45.16
2019-02-04T04:14:42.077Z,45.12
2019-02-04T04:17:08.204Z,45.16
2019-02-04T04:19:34.202Z,45.18
2019-02-04T04:22:00.284Z,45.08
2019-02-04T04:24:26.351Z,45.14
2019-02-04T04:26:52.340Z,45.14
2019-02-04T04:29:18.514Z,45.11
2019-02-04T04:31:44.888Z,45.02
2019-02-04T04:34:10.929Z,45.08
2019-02-04T04:36:36.913Z,45.13
2019-02-04T04:39:02.890Z,45.13
2019-02-04T04:41:28.903Z,45.11
2019-02-04T04:43:54.880Z,45.14
2019-02-04T04:46:20.864Z,45.24
2019-02-04T04:48:46.848Z,45.22
2019-02-04T04:51:13.203Z,45.05
2019-02-04T04:53:39.188Z,45.24
2019-02-04T04:56:05.172Z,45.19
2019-02-04T04:58:31.282Z,45.27
2019-02-04T05:00:57.360Z,45.38
2019-02-04T05:03:23.345Z,45.39
2019-02-04T05:05:49.336Z,45.52
2019-02-04T05:08:15.331Z,45.38
2019-02-04T05:10:41.748Z,45.44
2019-02-04T05:13:07.752Z,45.52
2019-02-04T05:15:33.753Z,45.48
2019-02-04T05:17:59.734Z,45.24
2019-02-04T05:20:25.764Z,45.38
2019-02-04T05:22:51.747Z,45.48
2019-02-04T05:25:17.841Z,45.35
2019-02-04T05:27:43.843Z,45.36
2019-02-04T05:30:10.407Z,45.27
2019-02-04T05:32:36.467Z,45.27
2019-02-04T05:35:02.472Z,45.19
2019-02-04T05:37:28.520Z,45.39
2019-02-04T05:39:54.641Z,45.35
2019-02-04T05:42:20.733Z,45.37
2019-02-04T05:44:46.717Z,45.38
2019-02-04T05:47:12.817Z,45.38
2019-02-04T05:49:39.202Z,45.49
2019-02-04T05:52:05.189Z,45.50
2019-02-04T05:54:31.166Z,45.67
2019-02-04T05:56:57.166Z,45.47
2019-02-04T05:59:23.152Z,45.35
2019-02-04T06:01:49.225Z,45.65
2019-02-04T06:04:15.216Z,45.56
2019-02-04T06:06:41.221Z,45.46
2019-02-04T06:09:08.539Z,45.46
2019-02-04T06:11:34.625Z,45.57
2019-02-04T06:14:00.781Z,45.59
2019-02-04T06:16:26.768Z,45.42
2019-02-04T06:19:00.601Z,45.25
2019-02-04T06:21:20.522Z,45.30
2019-02-04T06:23:46.658Z,45.21
2019-02-04T06:26:12.659Z,45.19
2019-02-04T06:28:38.655Z,45.33
2019-02-04T06:31:04.668Z,45.45
2019-02-04T06:33:30.730Z,45.39
2019-02-04T06:35:56.710Z,45.39
2019-02-04T06:38:22.688Z,45.37
2019-02-04T06:40:48.691Z,45.42
2019-02-04T06:43:14.778Z,45.43
2019-02-04T06:45:40.835Z,45.43
2019-02-04T06:48:06.944Z,46.43
2019-02-04T06:50:32.943Z,45.67
2019-02-04T06:52:58.998Z,45.39
2019-02-04T06:55:25.007Z,45.51
2019-02-04T06:57:51.014Z,45.30
2019-02-04T07:00:17.023Z,45.42
2019-02-04T07:02:43.020Z,45.21
2019-02-04T07:05:09.043Z,45.33
2019-02-04T07:07:35.480Z,45.38
2019-02-04T07:10:01.505Z,45.40
2019-02-04T07:12:27.494Z,45.51
2019-02-04T07:14:53.490Z,45.59
2019-02-04T07:17:19.469Z,46.19
2019-02-04T07:19:45.472Z,45.88
2019-02-04T07:22:11.555Z,45.74
2019-02-04T07:24:42.987Z,46.03
2019-02-04T07:27:05.296Z,46.15
2019-02-04T07:29:31.299Z,46.30
2019-02-04T07:31:57.276Z,46.50
2019-02-04T07:34:23.306Z,46.59
2019-02-04T07:36:49.278Z,46.53
2019-02-04T07:39:15.266Z,46.65
2019-02-04T07:41:41.260Z,46.67
2019-02-04T07:44:07.255Z,47.02
2019-02-04T07:46:33.361Z,46.56
2019-02-04T07:48:59.366Z,46.16
2019-02-04T07:51:25.367Z,46.11
2019-02-04T07:53:51.384Z,45.98
2019-02-04T07:56:17.548Z,45.99
2019-02-04T07:58:43.577Z,46.08
2019-02-04T08:01:09.559Z,45.98
2019-02-04T08:03:35.676Z,45.99
2019-02-04T08:06:01.798Z,45.96
2019-02-04T08:08:27.785Z,46.07
2019-02-04T08:10:53.809Z,45.96
2019-02-04T08:13:19.880Z,47.51
2019-02-04T08:15:45.850Z,45.93
2019-02-04T08:18:12.207Z,45.55
2019-02-04T08:20:38.186Z,46.41
2019-02-04T08:23:04.171Z,45.52
2019-02-04T08:25:30.164Z,45.46
2019-02-04T08:27:56.566Z,45.88
2019-02-04T08:30:22.584Z,46.04
2019-02-04T08:32:48.657Z,45.62
2019-02-04T08:35:14.759Z,46.07
2019-02-04T08:37:40.746Z,46.64
2019-02-04T08:40:06.736Z,45.15
2019-02-04T08:42:35.376Z,44.90
2019-02-04T08:45:00.425Z,45.26
2019-02-04T08:47:26.783Z,45.53
2019-02-04T08:49:58.557Z,45.20
2019-02-04T08:52:20.506Z,44.79
2019-02-04T08:54:46.560Z,45.53
2019-02-04T08:57:12.852Z,44.96
2019-02-04T08:59:38.840Z,45.04
2019-02-04T09:02:04.932Z,45.14
2019-02-04T09:04:30.943Z,45.18
2019-02-04T09:06:56.929Z,46.04
2019-02-04T09:09:23.321Z,45.76
2019-02-04T09:11:49.380Z,45.00
2019-02-04T09:14:15.371Z,45.12
2019-02-04T09:16:41.365Z,45.70
2019-02-04T09:19:07.406Z,45.90
2019-02-04T09:21:33.516Z,45.16
2019-02-04T09:23:59.563Z,46.43
2019-02-04T09:26:25.576Z,46.48
2019-02-04T09:28:51.621Z,45.38
2019-02-04T09:31:17.734Z,45.06
2019-02-04T09:33:43.758Z,45.63
2019-02-04T09:36:09.751Z,45.94
2019-02-04T09:38:35.767Z,45.24
2019-02-04T09:41:01.812Z,45.30
2019-02-04T09:43:27.879Z,46.20
2019-02-04T09:45:55.154Z,45.64
2019-02-04T09:48:21.241Z,46.05
2019-02-04T09:50:47.774Z,45.94
2019-02-04T09:53:13.838Z,45.35
2019-02-04T09:55:39.901Z,45.01
2019-02-04T09:58:05.995Z,45.02
2019-02-04T10:00:31.996Z,45.39
2019-02-04T10:02:59.083Z,46.48
2019-02-04T10:05:25.216Z,45.52
2019-02-04T10:07:51.213Z,44.83
2019-02-04T10:10:17.655Z,44.66
2019-02-04T10:12:43.709Z,45.73
2019-02-04T10:15:09.758Z,45.40
2019-02-04T10:17:36.459Z,45.56
2019-02-04T10:20:02.603Z,45.52
2019-02-04T10:22:28.762Z,45.46
2019-02-04T10:24:54.809Z,45.49
2019-02-04T10:27:20.838Z,45.65
2019-02-04T10:29:47.321Z,45.53
2019-02-04T10:32:13.542Z,45.45
2019-02-04T10:34:39.640Z,45.54
2019-02-04T10:37:05.638Z,45.57
2019-02-04T10:39:31.717Z,45.54
2019-02-04T10:41:57.853Z,45.54
2019-02-04T10:44:23.857Z,45.54
2019-02-04T10:46:49.912Z,45.58
2019-02-04T10:49:16.371Z,45.60
2019-02-04T10:51:42.448Z,45.54
2019-02-04T10:54:08.509Z,45.56
2019-02-04T10:56:34.590Z,45.61
2019-02-04T10:59:00.777Z,45.60
2019-02-04T11:01:26.784Z,45.67
2019-02-04T11:03:52.868Z,45.64
2019-02-04T11:06:18.929Z,45.90
2019-02-04T11:08:45.463Z,46.13
2019-02-04T11:11:11.470Z,45.84
2019-02-04T11:13:37.574Z,45.70
2019-02-04T11:16:03.809Z,45.57
2019-02-04T11:18:29.941Z,45.68
2019-02-04T11:20:58.080Z,45.97
2019-02-04T11:23:23.691Z,45.61
2019-02-04T11:25:49.769Z,45.46
2019-02-04T11:28:16.232Z,45.46
2019-02-04T11:30:43.403Z,45.39
2019-02-04T11:33:09.438Z,45.40
2019-02-04T11:35:35.501Z,45.46
2019-02-04T11:38:01.588Z,45.49
2019-02-04T11:40:27.722Z,45.42
2019-02-04T11:42:53.787Z,45.41
2019-02-04T11:45:19.823Z,45.37
2019-02-04T11:47:46.326Z,45.50
2019-02-04T11:50:12.376Z,45.49
2019-02-04T11:52:38.440Z,45.43
2019-02-04T11:55:04.527Z,45.56
2019-02-04T11:57:30.530Z,45.53
2019-02-04T11:59:56.580Z,45.46
2019-02-04T12:02:34.077Z,45.56
2019-02-04T12:04:50.440Z,45.44
2019-02-04T12:07:16.648Z,45.46
2019-02-04T12:09:42.629Z,45.55
2019-02-04T12:12:08.670Z,45.60
2019-02-04T12:14:34.679Z,45.70
2019-02-04T12:17:00.707Z,45.80
2019-02-04T12:19:26.739Z,45.78
2019-02-04T12:21:52.752Z,45.80
2019-02-04T12:24:18.730Z,45.90
2019-02-04T12:26:45.103Z,45.92
2019-02-04T12:29:11.096Z,46.00
2019-02-04T12:31:37.089Z,46.11
2019-02-04T12:34:03.132Z,46.20
2019-02-04T12:36:29.213Z,46.21
2019-02-04T12:38:55.279Z,46.00
2019-02-04T12:41:21.453Z,45.99
2019-02-04T12:43:47.506Z,45.98
2019-02-04T12:46:13.987Z,46.19
2019-02-04T12:48:40.005Z,46.14
2019-02-04T12:51:06.092Z,46.02
2019-02-04T12:53:32.142Z,46.00
2019-02-04T12:55:58.129Z,46.08
2019-02-04T12:58:24.127Z,46.15
2019-02-04T13:00:50.155Z,46.21
2019-02-04T13:03:16.212Z,46.04
2019-02-04T13:05:42.663Z,46.22
2019-02-04T13:08:08.673Z,46.09
2019-02-04T13:10:34.665Z,46.15
2019-02-04T13:13:00.713Z,46.14
2019-02-04T13:15:26.784Z,46.09
2019-02-04T13:17:52.943Z,46.08
2019-02-04T13:20:19.011Z,46.28
2019-02-04T13:22:45.082Z,46.27
2019-02-04T13:25:11.475Z,46.18
2019-02-04T13:27:37.484Z,46.26
2019-02-04T13:30:03.555Z,46.20
2019-02-04T13:32:29.575Z,46.21
2019-02-04T13:34:55.609Z,46.06
2019-02-04T13:37:21.745Z,46.25
2019-02-04T13:39:47.894Z,46.37
2019-02-04T13:42:13.948Z,46.43
2019-02-04T13:44:40.055Z,46.42
2019-02-04T13:47:06.101Z,46.50
2019-02-04T13:49:32.088Z,46.44
2019-02-04T13:51:58.085Z,46.31
2019-02-04T13:54:24.247Z,46.57
2019-02-04T13:56:50.268Z,46.55
2019-02-04T13:59:16.261Z,46.78
2019-02-04T14:01:42.266Z,47.35
2019-02-04T14:04:08.969Z,46.48
2019-02-04T14:06:34.970Z,46.33
2019-02-04T14:09:01.035Z,46.18
2019-02-04T14:11:27.173Z,46.37
2019-02-04T14:13:53.248Z,46.29
2019-02-04T14:16:19.275Z,46.30
2019-02-04T14:18:45.431Z,46.57
2019-02-04T14:21:11.425Z,47.19
2019-02-04T14:23:37.828Z,46.80
2019-02-04T14:26:03.797Z,46.82
2019-02-04T14:28:31.491Z,46.90
2019-02-04T14:30:57.721Z,46.90
2019-02-04T14:33:23.757Z,46.84
2019-02-04T14:35:49.748Z,46.77
2019-02-04T14:38:15.731Z,47.12
2019-02-04T14:40:41.886Z,46.65
2019-02-04T14:43:08.169Z,46.91
2019-02-04T14:45:34.238Z,47.13
2019-02-04T14:48:05.634Z,46.69
2019-02-04T14:50:27.962Z,47.15
2019-02-04T14:52:53.945Z,46.36
2019-02-04T14:55:20.720Z,46.47
2019-02-04T14:57:46.703Z,46.25
2019-02-04T15:00:12.938Z,46.06
2019-02-04T15:02:38.999Z,46.05
2019-02-04T15:05:05.074Z,45.92
2019-02-04T15:07:31.141Z,45.88
2019-02-04T15:09:57.128Z,45.90
2019-02-04T15:12:23.302Z,45.82
2019-02-04T15:14:49.340Z,45.94
2019-02-04T15:17:16.233Z,46.00
2019-02-04T15:19:42.316Z,45.93
2019-02-04T15:22:08.368Z,45.70
2019-02-04T15:24:34.382Z,45.77
2019-02-04T15:27:00.489Z,45.71
2019-02-04T15:29:26.567Z,45.84
2019-02-04T15:31:52.593Z,45.65
2019-02-04T15:34:18.657Z,45.53
2019-02-04T15:36:44.999Z,45.76
2019-02-04T15:39:10.986Z,46.04
2019-02-04T15:41:36.988Z,45.64
2019-02-04T15:44:02.978Z,45.38
2019-02-04T15:46:28.968Z,45.41
2019-02-04T15:48:54.973Z,45.78
2019-02-04T15:51:20.949Z,45.77
2019-02-04T15:53:47.007Z,45.40
2019-02-04T15:56:13.119Z,45.59
2019-02-04T15:58:39.101Z,45.51
2019-02-04T16:01:05.131Z,45.53
2019-02-04T16:03:31.183Z,45.42
2019-02-04T16:05:57.207Z,45.32
2019-02-04T16:08:23.295Z,45.28
2019-02-04T16:10:49.384Z,45.43
2019-02-04T16:13:15.464Z,45.37
2019-02-04T16:15:42.441Z,45.27
2019-02-04T16:18:08.694Z,45.23
2019-02-04T16:20:36.785Z,45.24
2019-02-04T16:23:02.889Z,45.84
2019-02-04T16:25:28.880Z,46.24
2019-02-04T16:27:55.019Z,46.30
2019-02-04T16:30:21.031Z,46.26
2019-02-04T16:32:47.046Z,46.30
2019-02-04T16:35:13.337Z,46.23
2019-02-04T16:37:39.418Z,46.17
2019-02-04T16:40:05.471Z,46.14
2019-02-04T16:42:32.504Z,45.99
2019-02-04T16:44:58.529Z,45.80
2019-02-04T16:47:24.513Z,45.99
2019-02-04T16:49:50.512Z,45.83
2019-02-04T16:52:16.503Z,45.82
2019-02-04T16:54:42.857Z,45.97
2019-02-04T16:57:08.899Z,46.00
2019-02-04T16:59:34.894Z,45.90
2019-02-04T17:02:00.944Z,45.80
2019-02-04T17:04:26.972Z,45.66
2019-02-04T17:06:53.056Z,45.49
2019-02-04T17:09:19.163Z,45.30
2019-02-04T17:11:45.247Z,45.22
2019-02-04T17:14:11.635Z,45.20
2019-02-04T17:16:37.676Z,45.04
2019-02-04T17:19:03.792Z,45.09
2019-02-04T17:21:29.780Z,45.16
2019-02-04T17:23:55.773Z,45.04
2019-02-04T17:26:21.797Z,45.09
2019-02-04T17:28:47.888Z,45.02
2019-02-04T17:31:14.050Z,45.07
2019-02-04T17:33:40.065Z,45.02
2019-02-04T17:36:06.070Z,44.99
2019-02-04T17:38:32.098Z,44.95
2019-02-04T17:40:58.124Z,45.07
2019-02-04T17:43:24.205Z,45.06
2019-02-04T17:45:50.326Z,44.97
2019-02-04T17:48:16.363Z,45.01
2019-02-04T17:50:42.388Z,45.02
2019-02-04T17:53:08.441Z,45.13
2019-02-04T17:55:34.835Z,45.20
2019-02-04T17:58:00.826Z,45.19
2019-02-04T18:00:26.893Z,45.19
2019-02-04T18:02:52.954Z,45.18
2019-02-04T18:05:18.939Z,45.21
2019-02-04T18:07:44.983Z,45.10
2019-02-04T18:10:11.042Z,45.21
2019-02-04T18:12:37.043Z,45.25
2019-02-04T18:15:03.587Z,45.30
2019-02-04T18:17:29.642Z,45.22
2019-02-04T18:19:55.719Z,45.25
2019-02-04T18:22:21.769Z,45.31
2019-02-04T18:24:47.812Z,45.21
2019-02-04T18:27:13.801Z,45.19
2019-02-04T18:29:39.873Z,45.21
2019-02-04T18:32:06.151Z,45.16
2019-02-04T18:34:32.226Z,45.27
2019-02-04T18:36:58.251Z,45.20
2019-02-04T18:39:24.217Z,45.26
2019-02-04T18:41:50.221Z,45.16
2019-02-04T18:44:16.277Z,45.22
2019-02-04T18:46:42.758Z,45.21
2019-02-04T18:49:08.747Z,45.18
2019-02-04T18:51:34.775Z,45.20
2019-02-04T18:54:00.900Z,45.44
2019-02-04T18:56:26.960Z,45.34
2019-02-04T18:58:53.043Z,45.39
2019-02-04T19:01:19.049Z,45.62
2019-02-04T19:03:45.117Z,45.67
2019-02-04T19:06:11.196Z,45.69
2019-02-04T19:08:37.241Z,45.70
2019-02-04T19:11:03.539Z,45.67
2019-02-04T19:13:36.143Z,45.52
2019-02-04T19:15:58.427Z,45.64
2019-02-04T19:18:24.559Z,45.36
2019-02-04T19:20:50.652Z,45.23
2019-02-04T19:23:16.675Z,45.12
2019-02-04T19:25:42.741Z,45.00
2019-02-04T19:28:08.765Z,45.18
2019-02-04T19:30:35.220Z,45.25
2019-02-04T19:33:01.241Z,45.14
2019-02-04T19:35:27.322Z,45.10
2019-02-04T19:37:53.413Z,45.01
2019-02-04T19:40:19.494Z,45.00
2019-02-04T19:42:45.486Z,45.14
2019-02-04T19:45:11.512Z,44.96
2019-02-04T19:47:37.584Z,44.87
2019-02-04T19:50:03.975Z,44.85
2019-02-04T19:52:30.320Z,44.86
2019-02-04T19:54:56.390Z,44.93
2019-02-04T19:57:22.472Z,44.94
2019-02-04T19:59:48.530Z,44.84
2019-02-04T20:02:16.401Z,44.77
2019-02-04T20:04:42.420Z,44.79
2019-02-04T20:07:08.500Z,44.73
2019-02-04T20:09:34.590Z,44.70
2019-02-04T20:12:00.756Z,44.73
2019-02-04T20:14:27.010Z,44.91
2019-02-04T20:16:53.104Z,45.45
2019-02-04T20:19:19.116Z,44.55
2019-02-04T20:21:45.654Z,44.36
2019-02-04T20:24:11.901Z,44.35
2019-02-04T20:26:38.040Z,44.39
2019-02-04T20:29:04.184Z,44.41
2019-02-04T20:31:30.572Z,44.21
2019-02-04T20:33:56.627Z,44.35
2019-02-04T20:36:22.669Z,44.29
2019-02-04T20:38:48.734Z,44.29
2019-02-04T20:41:14.744Z,44.35
2019-02-04T20:43:40.878Z,44.30
2019-02-04T20:46:07.022Z,44.30
2019-02-04T20:48:33.243Z,44.26
2019-02-04T20:51:00.279Z,44.20
2019-02-04T20:53:26.584Z,44.23
2019-02-04T20:55:52.631Z,44.19
2019-02-04T20:58:18.658Z,44.45
2019-02-04T21:00:44.656Z,44.54
2019-02-04T21:03:10.684Z,44.58
2019-02-04T21:05:36.779Z,44.23
2019-02-04T21:08:02.880Z,44.24
2019-02-04T21:10:28.964Z,44.42
2019-02-04T21:12:55.469Z,44.36
2019-02-04T21:15:21.780Z,44.26
2019-02-04T21:17:48.059Z,44.51
2019-02-04T21:20:14.061Z,44.39
2019-02-04T21:22:40.103Z,44.14
2019-02-04T21:25:06.222Z,44.43
2019-02-04T21:27:32.251Z,44.00
2019-02-04T21:29:58.365Z,45.13
2019-02-04T21:32:24.656Z,44.61
2019-02-04T21:34:50.870Z,45.45
2019-02-04T21:37:16.855Z,44.40
2019-02-04T21:39:42.852Z,44.39
2019-02-04T21:42:09.027Z,44.15
2019-02-04T21:44:35.055Z,44.33
2019-02-04T21:47:01.601Z,44.25
2019-02-04T21:49:27.735Z,44.13
2019-02-04T21:51:53.997Z,44.06
2019-02-04T21:54:20.265Z,44.29
2019-02-04T21:56:46.304Z,44.58
2019-02-04T21:59:12.375Z,44.12
2019-02-04T22:01:38.512Z,44.06
2019-02-04T22:04:04.533Z,45.09
2019-02-04T22:06:30.579Z,45.04
2019-02-04T22:08:56.613Z,44.83
2019-02-04T22:11:22.763Z,45.23
2019-02-04T22:13:48.779Z,45.25
2019-02-04T22:16:14.764Z,45.26
2019-02-04T22:18:40.825Z,45.17
2019-02-04T22:21:06.893Z,44.99
2019-02-04T22:23:33.104Z,44.99
2019-02-04T22:25:59.211Z,44.79
2019-02-04T22:28:25.290Z,45.09
2019-02-04T22:30:51.763Z,45.27
2019-02-04T22:33:17.853Z,45.00
2019-02-04T22:35:44.260Z,45.04
2019-02-04T22:38:10.269Z,44.99
2019-02-04T22:40:36.306Z,44.82
2019-02-04T22:43:02.393Z,44.83
2019-02-04T22:45:28.839Z,45.36
2019-02-04T22:47:55.229Z,45.24
2019-02-04T22:50:21.216Z,45.10
2019-02-04T22:52:47.288Z,45.06
2019-02-04T22:55:13.774Z,45.02
2019-02-04T22:57:39.796Z,45.03
2019-02-04T23:00:05.790Z,44.71
2019-02-04T23:02:31.775Z,44.81
2019-02-04T23:04:57.776Z,44.56
2019-02-04T23:07:23.770Z,44.82
2019-02-04T23:09:49.760Z,44.97
2019-02-04T23:12:15.778Z,45.12
2019-02-04T23:14:42.201Z,45.11
2019-02-04T23:17:08.209Z,44.75
2019-02-04T23:19:34.208Z,44.85
2019-02-04T23:22:00.231Z,45.17
2019-02-04T23:24:26.268Z,45.16
2019-02-04T23:26:52.340Z,45.06
2019-02-04T23:29:18.370Z,44.99
2019-02-04T23:31:44.420Z,45.12
2019-02-04T23:34:10.588Z,45.08
2019-02-04T23:36:36.640Z,45.05
2019-02-04T23:39:02.633Z,45.09
2019-02-04T23:41:28.691Z,45.14
2019-02-04T23:43:54.730Z,45.12
2019-02-04T23:46:20.779Z,45.19
2019-02-04T23:48:46.852Z,45.20
2019-02-04T23:51:12.846Z,45.22
2019-02-04T23:53:39.145Z,45.28
2019-02-04T23:56:05.146Z,45.22
2019-02-04T23:58:31.160Z,45.30
